Time;durP1;ratioP1;P1;durP2;ratioP2;P2;SDS_P1;SDS_P2;PMS_P1;PMS_P2;Temp;Humidity;BMP_temperature;BMP_pressure;BME280_temperature;BME280_humidity;BME280_pressure;Samples;Min_cycle;Max_cycle;Signal;HPM_P1;HPM_P2
2023/01/20 00:01:29;;;;;;;13.20;7.47;;;;;;;4.06;71.04;99169.03;4247159;33;33684;-84
2023/01/20 00:03:57;;;;;;;14.93;8.15;;;;;;;5.64;65.98;99160.84;4260094;33;34125;-79
2023/01/20 00:06:28;;;;;;;10.55;5.68;;;;;;;6.10;63.79;99153.94;4246881;33;33471;-84
2023/01/20 00:08:59;;;;;;;15.38;7.40;;;;;;;5.34;65.51;99157.53;4247366;33;34033;-81
2023/01/20 00:11:27;;;;;;;14.68;7.90;;;;;;;4.45;69.81;99136.28;4256381;33;33653;-81
2023/01/20 00:13:59;;;;;;;17.70;8.90;;;;;;;5.05;68.03;99123.41;4259474;33;34307;-79
2023/01/20 00:16:27;;;;;;;17.77;9.18;;;;;;;5.15;67.20;99112.84;4247181;33;33792;-81
2023/01/20 00:18:55;;;;;;;18.12;9.05;;;;;;;4.95;67.82;99123.72;4260069;33;34543;-79
2023/01/20 00:21:22;;;;;;;17.58;9.10;;;;;;;5.08;67.57;99132.16;4260054;33;34161;-84
2023/01/20 00:23:50;;;;;;;16.73;9.05;;;;;;;4.93;67.81;99137.31;4246197;33;32212;-81
2023/01/20 00:26:20;;;;;;;17.52;9.93;;;;;;;3.62;72.90;99146.72;4260018;33;34596;-82
2023/01/20 00:28:49;;;;;;;16.40;8.02;;;;;;;3.72;71.58;99156.72;4259250;33;34410;-84
2023/01/20 00:31:25;;;;;;;15.98;8.63;;;;;;;4.86;67.95;99144.59;4256394;33;33952;-83
2023/01/20 00:33:55;;;;;;;17.65;9.63;;;;;;;5.57;66.02;99161.34;4247091;33;33048;-84
2023/01/20 00:36:24;;;;;;;16.55;8.88;;;;;;;5.10;66.74;99161.38;4247877;33;33881;-80
2023/01/20 00:38:51;;;;;;;15.85;8.55;;;;;;;6.45;62.79;99167.72;4245824;33;33860;-82
2023/01/20 00:41:19;;;;;;;17.85;8.85;;;;;;;6.04;64.18;99181.88;4246983;33;33563;-81
2023/01/20 00:43:46;;;;;;;13.73;7.37;;;;;;;6.39;63.69;99187.97;4245927;33;33477;-83
2023/01/20 00:46:14;;;;;;;14.75;8.38;;;;;;;5.50;64.45;99198.63;4259778;33;34624;-80
2023/01/20 00:48:42;;;;;;;13.43;7.57;;;;;;;7.53;59.95;99198.69;4260023;33;33623;-79
2023/01/20 00:51:10;;;;;;;15.70;8.32;;;;;;;8.26;57.19;99200.28;4259908;33;33816;-79
2023/01/20 00:53:37;;;;;;;14.98;7.75;;;;;;;4.40;70.01;99204.34;4234099;33;31478;-79
2023/01/20 00:56:06;;;;;;;13.70;7.40;;;;;;;7.06;60.63;99180.16;4259600;33;33535;-79
2023/01/20 00:58:33;;;;;;;14.68;7.00;;;;;;;4.95;66.29;99172.47;4246817;33;34827;-81
2023/01/20 01:01:01;;;;;;;17.62;8.02;;;;;;;6.31;63.79;99194.41;4258662;33;34094;-79
2023/01/20 01:03:29;;;;;;;13.95;8.48;;;;;;;6.46;61.78;99184.03;4259019;33;34090;-82
2023/01/20 01:06:11;;;;;;;13.98;7.53;;;;;;;8.01;58.13;99175.09;4259191;33;33771;-78
2023/01/20 01:08:39;;;;;;;12.95;7.28;;;;;;;9.91;51.58;99156.19;4259559;33;33858;-82
2023/01/20 01:11:07;;;;;;;15.20;7.57;;;;;;;9.90;50.57;99151.84;4246037;33;33283;-82
2023/01/20 01:13:37;;;;;;;15.00;7.37;;;;;;;9.30;51.74;99146.97;4246472;33;33501;-81
2023/01/20 01:16:10;;;;;;;13.43;6.85;;;;;;;8.80;53.26;99138.97;4258066;33;33586;-83
2023/01/20 01:18:38;;;;;;;14.13;7.60;;;;;;;7.78;57.05;99143.12;4246636;33;33535;-79
2023/01/20 01:21:10;;;;;;;15.23;7.68;;;;;;;8.10;55.57;99141.13;4259061;33;33659;-82
2023/01/20 01:23:38;;;;;;;13.07;7.57;;;;;;;6.70;60.25;99143.19;4259221;33;33665;-78
2023/01/20 01:26:05;;;;;;;15.13;7.87;;;;;;;5.91;63.47;99139.22;4259135;33;33348;-82
2023/01/20 01:28:33;;;;;;;15.77;8.60;;;;;;;7.20;59.09;99131.87;4260637;33;33966;-81
2023/01/20 01:31:02;;;;;;;14.38;8.20;;;;;;;5.97;62.09;99125.81;4260471;33;34550;-78
2023/01/20 01:33:30;;;;;;;13.93;6.90;;;;;;;6.82;60.85;99127.50;4248416;33;34046;-81
2023/01/20 01:36:00;;;;;;;11.93;6.82;;;;;;;7.41;58.06;99134.59;4258349;33;33675;-83
2023/01/20 01:38:28;;;;;;;12.90;7.00;;;;;;;7.27;58.60;99123.63;4248334;33;33543;-82
2023/01/20 01:40:56;;;;;;;15.63;7.80;;;;;;;6.61;60.58;99117.03;4260991;33;35326;-80
2023/01/20 01:43:27;;;;;;;13.93;6.80;;;;;;;5.89;62.41;99121.91;4260882;33;33477;-81
2023/01/20 01:45:55;;;;;;;14.80;8.10;;;;;;;6.32;61.87;99125.84;4247935;33;33586;-84
2023/01/20 01:48:29;;;;;;;16.10;8.60;;;;;;;6.24;61.89;99120.34;4261402;33;34740;-84
2023/01/20 01:51:03;;;;;;;15.95;8.40;;;;;;;5.74;63.54;99121.09;4260781;33;34066;-82
2023/01/20 01:53:34;;;;;;;16.42;8.38;;;;;;;4.79;67.27;99112.56;4261646;33;33078;-80
2023/01/20 01:56:02;;;;;;;15.45;7.65;;;;;;;5.27;65.88;99108.41;4260818;33;33902;-81
2023/01/20 01:58:35;;;;;;;15.30;8.68;;;;;;;5.23;64.96;99110.69;4248081;33;34560;-84
2023/01/20 02:01:02;;;;;;;19.17;9.65;;;;;;;5.35;65.23;99103.69;4261020;33;35032;-79
2023/01/20 02:03:42;;;;;;;17.55;9.45;;;;;;;5.17;65.81;99106.09;4260155;33;33526;-82
2023/01/20 02:06:10;;;;;;;17.77;9.63;;;;;;;4.98;66.44;99098.19;4259286;33;33639;-79
2023/01/20 02:08:38;;;;;;;18.65;10.00;;;;;;;5.04;66.74;99098.53;4247994;33;33518;-81
2023/01/20 02:11:06;;;;;;;19.35;10.65;;;;;;;5.36;65.83;99104.56;4260801;33;33631;-82
2023/01/20 02:13:34;;;;;;;21.20;11.45;;;;;;;5.02;67.63;99106.16;4260801;33;33439;-81
2023/01/20 02:16:34;;;;;;;17.77;10.00;;;;;;;5.27;65.33;99102.34;4260126;33;33945;-82
2023/01/20 02:19:38;;;;;;;18.42;10.35;;;;;;;6.06;62.79;99105.72;4232881;33;34637;-81
2023/01/20 02:23:07;;;;;;;16.40;9.90;;;;;;;6.25;62.64;99104.09;4253974;33;33536;-79
2023/01/20 02:26:12;;;;;;;17.27;9.60;;;;;;;3.86;70.76;99110.56;4197766;34;32247;-83
2023/01/20 02:28:57;;;;;;;18.52;9.98;;;;;;;4.38;68.90;99111.06;4202973;34;33655;-81
2023/01/20 02:31:43;;;;;;;19.85;10.60;;;;;;;3.60;71.97;99122.69;4246949;33;34005;-82
2023/01/20 02:34:45;;;;;;;18.70;10.35;;;;;;;2.77;76.54;99120.06;4255805;33;33289;-83
2023/01/20 02:37:16;;;;;;;19.98;10.52;;;;;;;2.66;78.06;99113.34;4245381;33;34225;-81
2023/01/20 02:39:59;;;;;;;19.67;10.27;;;;;;;2.02;80.18;99118.56;4247828;33;33908;-83
2023/01/20 02:42:59;;;;;;;22.35;11.30;;;;;;;2.26;79.77;99111.66;4250598;33;33813;-81
2023/01/20 02:45:39;;;;;;;22.20;11.10;;;;;;;4.22;73.22;99095.59;4244490;33;34384;-80
2023/01/20 02:48:38;;;;;;;22.30;10.93;;;;;;;3.32;76.54;99107.28;4243876;33;33872;-82
2023/01/20 02:51:13;;;;;;;21.73;10.75;;;;;;;4.03;72.47;99097.09;4255794;33;33212;-79
2023/01/20 02:53:48;;;;;;;21.48;11.90;;;;;;;2.52;78.54;99115.91;4259472;33;33630;-82
2023/01/20 02:56:18;;;;;;;19.80;10.15;;;;;;;4.27;70.51;99117.28;4259735;33;34060;-82
2023/01/20 02:58:53;;;;;;;21.10;11.00;;;;;;;3.96;73.83;99107.78;4259765;33;33349;-80
2023/01/20 03:01:48;;;;;;;21.40;11.38;;;;;;;4.99;67.95;99107.69;4247969;33;33527;-83
2023/01/20 03:04:19;;;;;;;20.75;11.40;;;;;;;4.11;71.34;99113.81;4228826;33;33465;-80
2023/01/20 03:06:50;;;;;;;21.75;11.35;;;;;;;5.63;65.87;99108.59;4259444;33;34462;-79
2023/01/20 03:09:22;;;;;;;23.95;12.25;;;;;;;5.43;65.59;99109.22;4241978;33;33560;-79
2023/01/20 03:11:54;;;;;;;23.23;11.73;;;;;;;6.20;63.15;99105.53;4238453;33;34397;-84
2023/01/20 03:14:22;;;;;;;24.75;11.68;;;;;;;6.01;63.20;99112.31;4239609;33;34455;-80
2023/01/20 03:16:50;;;;;;;25.37;11.82;;;;;;;6.53;61.62;99108.94;4227994;33;32407;-79
2023/01/20 03:19:19;;;;;;;17.58;9.35;;;;;;;5.96;62.95;99118.91;4244874;33;32051;-85
2023/01/20 03:21:47;;;;;;;22.20;11.35;;;;;;;6.75;60.62;99125.44;4258474;33;33812;-81
2023/01/20 03:24:15;;;;;;;21.48;10.90;;;;;;;6.82;60.16;99124.94;4246399;33;33267;-79
2023/01/20 03:26:42;;;;;;;22.77;12.10;;;;;;;6.73;60.21;99115.06;4247329;33;34039;-82
2023/01/20 03:29:11;;;;;;;21.55;10.95;;;;;;;7.08;59.94;99123.59;4259664;33;33581;-81
2023/01/20 03:31:43;;;;;;;23.23;11.48;;;;;;;7.57;58.30;99124.97;4259449;33;33827;-82
2023/01/20 03:34:14;;;;;;;20.55;10.40;;;;;;;7.68;57.05;99132.37;4247096;33;33539;-81
2023/01/20 03:36:43;;;;;;;20.48;10.80;;;;;;;7.67;57.28;99138.38;4259176;33;33975;-82
2023/01/20 03:39:12;;;;;;;19.02;9.88;;;;;;;6.34;62.28;99132.84;4257882;33;32966;-81
2023/01/20 03:41:39;;;;;;;18.83;9.90;;;;;;;7.40;58.15;99135.41;4247139;33;33615;-81
2023/01/20 03:44:16;;;;;;;18.85;9.68;;;;;;;7.68;57.42;99132.37;4259131;33;32419;-82
2023/01/20 03:46:46;;;;;;;17.33;9.27;;;;;;;6.64;59.36;99127.47;4246519;33;34417;-83
2023/01/20 03:49:42;;;;;;;21.87;10.05;;;;;;;6.93;59.53;99126.31;4259424;33;33564;-81
2023/01/20 03:52:27;;;;;;;17.12;9.35;;;;;;;7.25;58.64;99121.81;4259572;33;33010;-81
2023/01/20 03:55:31;;;;;;;18.67;10.43;;;;;;;6.91;59.71;99129.63;4259602;33;33743;-81
2023/01/20 03:58:05;;;;;;;20.58;9.35;;;;;;;6.76;60.25;99133.22;4251027;33;34629;-80
2023/01/20 04:00:35;;;;;;;15.97;8.63;;;;;;;6.10;62.55;99123.09;4247461;33;33387;-83
2023/01/20 04:03:06;;;;;;;17.75;9.05;;;;;;;7.14;59.52;99125.56;4247003;33;32754;-80
2023/01/20 04:05:35;;;;;;;18.00;8.73;;;;;;;6.60;60.53;99116.13;4247205;33;32394;-83
2023/01/20 04:08:06;;;;;;;18.40;9.70;;;;;;;7.20;58.92;99110.41;4246946;33;34425;-80
2023/01/20 04:10:35;;;;;;;16.92;8.27;;;;;;;7.32;58.82;99126.47;4247165;33;33560;-79
2023/01/20 04:13:03;;;;;;;17.98;8.95;;;;;;;6.88;59.93;99128.66;4247165;33;33739;-83
2023/01/20 04:15:39;;;;;;;16.98;8.70;;;;;;;3.84;70.07;99137.78;4259874;33;34137;-79
2023/01/20 04:18:16;;;;;;;17.77;8.90;;;;;;;5.99;63.58;99126.78;4246923;33;33970;-82
2023/01/20 04:20:46;;;;;;;17.05;9.30;;;;;;;5.75;62.51;99117.75;4256365;33;34038;-83
2023/01/20 04:23:22;;;;;;;15.10;8.20;;;;;;;6.03;64.42;99120.12;4260034;33;34340;-80
2023/01/20 04:25:49;;;;;;;18.65;9.27;;;;;;;4.33;69.82;99120.19;4259761;33;33943;-81
2023/01/20 04:28:17;;;;;;;19.42;9.85;;;;;;;3.67;72.61;99135.09;4259420;33;33934;-79
2023/01/20 04:30:44;;;;;;;20.40;10.55;;;;;;;2.91;75.42;99134.59;4247067;33;33355;-81
2023/01/20 04:33:12;;;;;;;20.33;9.48;;;;;;;2.94;78.16;99141.59;4258365;33;33446;-80
2023/01/20 04:35:40;;;;;;;17.85;10.05;;;;;;;3.64;76.25;99146.81;4247082;33;33790;-83
2023/01/20 04:38:07;;;;;;;19.17;10.75;;;;;;;3.11;76.14;99140.09;4259371;33;34764;-80
2023/01/20 04:40:35;;;;;;;20.83;10.00;;;;;;;4.37;72.27;99131.53;4258565;33;33758;-81
2023/01/20 04:43:03;;;;;;;16.08;8.18;;;;;;;5.14;68.47;99134.19;4245240;33;33827;-80
2023/01/20 04:45:30;;;;;;;19.67;9.82;;;;;;;6.50;63.21;99132.81;4259787;33;35185;-79
2023/01/20 04:47:58;;;;;;;19.67;9.18;;;;;;;2.93;76.29;99147.50;4259319;33;33698;-80
2023/01/20 04:50:25;;;;;;;22.00;10.07;;;;;;;5.20;67.23;99134.53;4259331;33;34774;-85
2023/01/20 04:52:54;;;;;;;18.65;8.90;;;;;;;5.18;67.40;99133.56;4258587;33;34496;-83
2023/01/20 04:55:22;;;;;;;19.80;9.25;;;;;;;5.55;65.74;99109.87;4246881;33;34430;-79
2023/01/20 04:57:49;;;;;;;19.12;10.07;;;;;;;5.39;66.11;99109.84;4258572;33;33604;-83
2023/01/20 05:00:19;;;;;;;18.08;9.68;;;;;;;5.54;65.61;99102.94;4253038;33;33195;-80
2023/01/20 05:02:46;;;;;;;17.27;8.23;;;;;;;5.25;67.32;99097.16;4266594;33;34480;-81
2023/01/20 05:05:14;;;;;;;20.85;10.60;;;;;;;5.45;65.72;99087.06;4260830;33;33770;-85
2023/01/20 05:07:42;;;;;;;22.80;11.05;;;;;;;5.22;66.73;99071.31;4247897;33;34011;-80
2023/01/20 05:10:10;;;;;;;24.27;12.07;;;;;;;5.00;67.25;99076.06;4260445;33;33787;-83
2023/01/20 05:12:40;;;;;;;22.87;11.65;;;;;;;2.59;76.32;99085.63;4260650;33;33849;-83
2023/01/20 05:15:07;;;;;;;24.17;11.45;;;;;;;2.75;78.31;99088.38;4260342;33;34711;-80
2023/01/20 05:17:35;;;;;;;22.95;11.45;;;;;;;2.72;78.59;99083.97;4260438;33;33836;-82
2023/01/20 05:20:03;;;;;;;22.05;10.90;;;;;;;2.36;79.91;99088.47;4261052;33;34146;-82
2023/01/20 05:22:34;;;;;;;27.17;13.50;;;;;;;2.81;79.85;99095.56;4259761;33;34232;-81
2023/01/20 05:25:01;;;;;;;23.50;12.13;;;;;;;2.06;81.29;99101.75;4261038;33;34098;-80
2023/01/20 05:27:29;;;;;;;22.67;12.30;;;;;;;2.36;81.47;99097.81;4261026;33;33943;-81
2023/01/20 05:29:56;;;;;;;24.30;11.60;;;;;;;2.73;79.27;99103.63;4260676;33;33419;-81
2023/01/20 05:32:24;;;;;;;22.60;12.65;;;;;;;2.29;81.21;99108.41;4256345;33;33799;-81
2023/01/20 05:34:51;;;;;;;23.38;12.77;;;;;;;1.69;83.47;99100.16;4255873;33;33951;-82
2023/01/20 05:37:19;;;;;;;24.90;12.65;;;;;;;1.81;83.70;99099.22;4254858;33;33841;-81
2023/01/20 05:39:46;;;;;;;27.02;13.38;;;;;;;2.06;84.94;99102.63;4242421;33;33713;-83
2023/01/20 05:42:14;;;;;;;26.08;12.43;;;;;;;2.07;82.48;99109.53;4255149;33;33910;-82
2023/01/20 05:44:42;;;;;;;23.58;12.88;;;;;;;4.07;74.80;99095.59;4255537;33;34684;-83
2023/01/20 05:47:09;;;;;;;25.23;12.98;;;;;;;2.79;77.81;99105.69;4249969;33;33885;-79
2023/01/20 05:49:37;;;;;;;23.70;13.07;;;;;;;2.80;79.74;99110.03;4258960;33;33075;-79
2023/01/20 05:52:04;;;;;;;25.90;12.50;;;;;;;1.99;82.36;99114.91;4260145;33;33700;-81
2023/01/20 05:54:32;;;;;;;23.20;12.07;;;;;;;3.99;75.13;99107.94;4248106;33;33910;-81
2023/01/20 05:56:59;;;;;;;19.48;10.95;;;;;;;6.93;62.79;99104.84;4261505;33;33681;-80
2023/01/20 05:59:27;;;;;;;20.92;10.73;;;;;;;6.45;62.75;99103.41;4261270;33;33301;-81
2023/01/20 06:01:54;;;;;;;21.70;11.20;;;;;;;4.07;72.05;99106.72;4260101;33;34506;-78
2023/01/20 06:04:25;;;;;;;22.13;12.75;;;;;;;5.01;69.20;99108.66;4260953;33;34496;-78
2023/01/20 06:06:52;;;;;;;22.75;11.55;;;;;;;3.49;75.11;99110.91;4261056;33;33867;-81
2023/01/20 06:09:20;;;;;;;21.75;12.48;;;;;;;3.89;74.72;99111.63;4261043;33;33266;-80
2023/01/20 06:11:47;;;;;;;23.55;11.75;;;;;;;3.89;72.56;99115.88;4258968;33;33412;-78
2023/01/20 06:14:15;;;;;;;20.23;11.60;;;;;;;2.92;78.77;99105.69;4258819;33;33852;-82
2023/01/20 06:16:42;;;;;;;21.17;10.75;;;;;;;5.40;67.91;99091.94;4256138;33;33942;-79
2023/01/20 06:19:10;;;;;;;19.20;10.32;;;;;;;6.38;64.72;99093.59;4260311;33;34271;-84
2023/01/20 06:21:37;;;;;;;23.02;11.32;;;;;;;4.40;69.85;99094.09;4259936;33;33656;-80
2023/01/20 06:24:05;;;;;;;21.58;11.35;;;;;;;3.48;75.03;99101.47;4252604;33;34708;-80
2023/01/20 06:26:33;;;;;;;21.20;10.82;;;;;;;4.17;74.84;99102.13;4259871;33;34548;-83
2023/01/20 06:29:01;;;;;;;20.08;11.12;;;;;;;4.52;73.06;99102.50;4246736;33;31894;-81
2023/01/20 06:31:28;;;;;;;23.25;11.35;;;;;;;5.29;68.15;99108.44;4259053;33;33678;-81
2023/01/20 06:33:56;;;;;;;24.60;13.57;;;;;;;3.49;75.02;99118.59;4259824;33;33802;-79
2023/01/20 06:36:23;;;;;;;22.87;12.65;;;;;;;2.83;79.14;99117.87;4259511;33;33993;-81
2023/01/20 06:38:52;;;;;;;20.90;11.45;;;;;;;4.26;74.09;99108.69;4221145;33;31977;-83
2023/01/20 06:41:20;;;;;;;20.75;11.12;;;;;;;5.26;69.71;99096.34;4258731;33;33826;-80
2023/01/20 06:43:49;;;;;;;24.33;12.05;;;;;;;5.26;68.72;99090.34;4259687;33;33813;-83
2023/01/20 06:46:16;;;;;;;23.65;11.82;;;;;;;4.25;71.91;99096.69;4259827;33;33990;-84
2023/01/20 06:48:44;;;;;;;25.83;12.82;;;;;;;3.41;76.71;99117.22;4258469;33;34428;-82
2023/01/20 06:51:18;;;;;;;28.50;12.98;;;;;;;3.67;76.54;99121.38;4257885;33;33867;-80
2023/01/20 06:53:46;;;;;;;27.00;12.73;;;;;;;3.07;79.56;99122.78;4259350;33;33971;-81
2023/01/20 06:56:14;;;;;;;25.90;13.10;;;;;;;3.73;76.14;99125.22;4258357;33;33614;-81
2023/01/20 06:58:42;;;;;;;22.17;11.77;;;;;;;4.07;74.73;99111.84;4258780;33;33320;-82
2023/01/20 07:01:12;;;;;;;25.90;12.63;;;;;;;4.16;74.62;99123.47;4258480;33;32567;-80
2023/01/20 07:03:42;;;;;;;26.27;12.90;;;;;;;3.71;75.54;99129.34;4245373;33;32992;-82
2023/01/20 07:06:23;;;;;;;26.37;12.68;;;;;;;4.00;74.97;99134.44;4242984;33;33842;-80
2023/01/20 07:08:52;;;;;;;26.62;13.38;;;;;;;4.40;74.41;99132.56;4257957;33;33433;-80
2023/01/20 07:11:19;;;;;;;26.05;13.60;;;;;;;3.07;79.12;99133.03;4253015;33;221075;-81
2023/01/20 07:13:47;;;;;;;25.88;14.43;;;;;;;3.29;78.65;99138.72;4258620;33;33467;-78
2023/01/20 07:16:15;;;;;;;25.62;14.13;;;;;;;3.35;78.46;99141.66;4264565;33;33861;-79
2023/01/20 07:18:46;;;;;;;26.87;13.57;;;;;;;3.45;78.44;99142.22;4258634;33;33291;-79
2023/01/20 07:21:14;;;;;;;26.87;14.45;;;;;;;4.12;75.69;99146.31;4247687;33;33980;-80
2023/01/20 07:23:41;;;;;;;26.85;14.18;;;;;;;3.94;76.13;99150.38;4246753;33;33698;-78
2023/01/20 07:26:11;;;;;;;31.42;14.82;;;;;;;3.19;79.26;99151.72;4259476;33;33288;-80
2023/01/20 07:28:39;;;;;;;26.27;14.23;;;;;;;3.20;78.89;99150.91;4259946;33;34151;-82
2023/01/20 07:31:17;;;;;;;31.23;13.52;;;;;;;4.09;76.81;99152.94;4259506;33;34595;-83
2023/01/20 07:33:45;;;;;;;23.87;12.85;;;;;;;3.68;77.24;99157.31;4256288;33;34693;-80
2023/01/20 07:36:14;;;;;;;30.37;15.63;;;;;;;3.36;79.32;99152.75;4247073;33;34478;-82
2023/01/20 07:38:41;;;;;;;27.17;14.05;;;;;;;4.28;74.25;99147.25;4245207;33;32459;-80
2023/01/20 07:41:14;;;;;;;27.95;13.68;;;;;;;4.01;76.50;99152.47;4259488;33;34476;-82
2023/01/20 07:43:43;;;;;;;25.02;13.68;;;;;;;4.11;75.80;99149.69;4260502;33;34046;-81
2023/01/20 07:46:12;;;;;;;25.65;12.63;;;;;;;6.53;65.06;99131.19;4247530;33;34191;-79
2023/01/20 07:48:40;;;;;;;22.27;11.98;;;;;;;6.61;64.63;99137.63;4260234;33;34314;-80
2023/01/20 07:51:10;;;;;;;26.02;12.63;;;;;;;7.60;60.93;99146.63;4247308;33;33938;-78
2023/01/20 07:53:45;;;;;;;20.67;10.80;;;;;;;6.82;63.41;99141.25;4259724;33;33604;-79
2023/01/20 07:56:21;;;;;;;20.77;11.30;;;;;;;7.05;63.04;99146.59;4247158;33;34046;-81
2023/01/20 07:58:50;;;;;;;32.83;20.02;;;;;;;6.98;62.92;99149.72;4259541;33;33462;-82
2023/01/20 08:01:29;;;;;;;72.75;36.40;;;;;;;7.34;61.66;99150.59;4258198;33;33588;-80
2023/01/20 08:03:59;;;;;;;68.62;35.30;;;;;;;7.10;62.38;99155.44;4259899;33;34581;-83
2023/01/20 08:06:27;;;;;;;34.97;20.08;;;;;;;7.16;62.21;99160.88;4265608;33;33858;-79
2023/01/20 08:08:55;;;;;;;33.75;21.62;;;;;;;6.74;63.79;99160.59;4246528;33;33427;-81
2023/01/20 08:11:25;;;;;;;23.02;11.88;;;;;;;6.76;63.78;99161.53;4258261;33;33887;-78
2023/01/20 08:13:52;;;;;;;20.17;10.93;;;;;;;6.84;63.66;99167.06;4259297;33;33711;-81
2023/01/20 08:16:20;;;;;;;25.25;12.88;;;;;;;7.04;63.19;99170.59;4259646;33;33812;-80
2023/01/20 08:18:48;;;;;;;23.62;12.10;;;;;;;7.34;62.45;99170.31;4259912;33;34136;-79
2023/01/20 08:21:20;;;;;;;21.77;10.70;;;;;;;7.16;63.04;99171.19;4259880;33;33921;-80
2023/01/20 08:23:49;;;;;;;22.30;11.52;;;;;;;8.10;60.22;99172.94;4246599;33;34551;-81
2023/01/20 08:26:18;;;;;;;19.95;10.93;;;;;;;8.25;59.64;99167.59;4258987;33;33617;-81
2023/01/20 08:28:46;;;;;;;19.65;10.60;;;;;;;7.94;60.53;99176.53;4255852;33;33316;-79
2023/01/20 08:31:16;;;;;;;22.02;11.45;;;;;;;7.42;60.90;99174.16;4259128;33;33992;-82
2023/01/20 08:33:45;;;;;;;25.42;10.88;;;;;;;8.03;60.81;99173.47;4244408;33;34712;-79
2023/01/20 08:36:19;;;;;;;22.10;10.82;;;;;;;6.77;64.83;99171.00;4259329;33;34578;-79
2023/01/20 08:38:47;;;;;;;26.45;13.50;;;;;;;7.77;61.35;99177.47;4257538;33;33577;-82
2023/01/20 08:41:20;;;;;;;20.65;11.60;;;;;;;8.76;58.26;99172.34;4258949;33;33801;-81
2023/01/20 08:43:48;;;;;;;20.92;10.50;;;;;;;9.53;55.49;99171.16;4256824;33;34378;-78
2023/01/20 08:46:18;;;;;;;18.27;11.45;;;;;;;8.81;56.89;99171.72;4246596;33;33578;-82
2023/01/20 08:48:47;;;;;;;24.77;13.60;;;;;;;9.08;56.37;99171.09;4259351;33;33107;-82
2023/01/20 08:51:17;;;;;;;26.40;15.93;;;;;;;9.41;55.66;99176.72;4257974;33;33862;-78
2023/01/20 08:53:45;;;;;;;21.80;13.90;;;;;;;9.15;56.49;99172.22;4246829;33;34126;-79
2023/01/20 08:56:13;;;;;;;22.73;10.95;;;;;;;9.59;55.00;99166.19;4259561;33;33832;-81
2023/01/20 08:58:41;;;;;;;21.20;11.25;;;;;;;8.69;57.27;99168.63;4259772;33;33424;-80
2023/01/20 09:01:10;;;;;;;18.48;11.02;;;;;;;9.06;56.61;99172.75;4257395;33;33742;-80
2023/01/20 09:03:38;;;;;;;16.95;9.50;;;;;;;9.20;56.50;99173.28;4245740;33;32289;-80
2023/01/20 09:06:08;;;;;;;20.00;10.05;;;;;;;9.49;55.84;99173.56;4246261;33;33452;-80
2023/01/20 09:08:37;;;;;;;18.70;8.85;;;;;;;9.00;56.15;99182.78;4258408;33;33525;-79
2023/01/20 09:11:10;;;;;;;18.70;9.07;;;;;;;8.66;58.76;99181.41;4257366;33;34468;-79
2023/01/20 09:13:39;;;;;;;16.13;8.97;;;;;;;9.92;54.05;99176.06;4254279;33;33744;-83
2023/01/20 09:16:08;;;;;;;16.17;8.30;;;;;;;9.45;55.07;99175.16;4246460;33;34497;-80
2023/01/20 09:18:35;;;;;;;25.37;16.40;;;;;;;9.62;54.45;99171.50;4243641;33;33557;-82
2023/01/20 09:21:06;;;;;;;18.37;10.35;;;;;;;9.07;55.98;99174.50;4259069;33;34379;-78
2023/01/20 09:23:35;;;;;;;17.15;9.52;;;;;;;8.84;56.89;99166.66;4256036;33;33683;-80
2023/01/20 09:26:05;;;;;;;18.33;10.43;;;;;;;8.99;56.14;99168.13;4257777;33;33226;-78
2023/01/20 09:28:33;;;;;;;18.23;9.05;;;;;;;8.76;57.00;99152.56;4258723;33;33103;-80
2023/01/20 09:31:05;;;;;;;19.15;9.73;;;;;;;8.30;58.61;99150.59;4258605;33;34741;-82
2023/01/20 09:33:36;;;;;;;18.98;10.25;;;;;;;7.76;60.28;99152.50;4243776;33;33965;-81
2023/01/20 09:36:06;;;;;;;20.50;10.05;;;;;;;7.83;59.91;99146.81;4258570;33;34340;-79
2023/01/20 09:44:42;;;;;;;22.62;10.38;;;;;;;7.50;61.46;99136.72;4255310;33;33919;-82
2023/01/20 09:47:24;;;;;;;18.95;10.38;;;;;;;7.28;62.54;99135.72;4258825;33;33593;-79
2023/01/20 09:53:01;;;;;;;20.27;10.90;;;;;;;8.16;59.97;99125.91;4257872;33;34151;-79
2023/01/20 09:55:49;;;;;;;16.08;8.88;;;;;;;7.81;61.05;99144.16;4260824;33;34239;-78
2023/01/20 09:58:28;;;;;;;14.57;7.47;;;;;;;7.56;61.94;99131.84;4236232;33;33971;-80
2023/01/20 10:01:29;;;;;;;20.67;9.63;;;;;;;7.45;62.50;99127.88;4260865;33;33358;-82
2023/01/20 10:04:06;;;;;;;17.77;8.38;;;;;;;7.80;61.54;99123.44;4258076;33;33678;-79
2023/01/20 10:06:40;;;;;;;19.42;9.18;;;;;;;6.98;63.36;99118.81;4260577;33;33988;-80
2023/01/20 10:09:16;;;;;;;17.83;8.30;;;;;;;7.41;62.93;99102.78;4246776;33;34475;-81
2023/01/20 10:11:46;;;;;;;16.75;8.65;;;;;;;7.76;61.92;99088.91;4260439;33;33032;-81
2023/01/20 10:14:19;;;;;;;20.20;9.88;;;;;;;7.73;62.27;99087.91;4260739;33;33310;-80
2023/01/20 10:17:14;;;;;;;19.17;10.00;;;;;;;5.89;69.27;99091.06;4259892;33;34526;-79
2023/01/20 10:19:57;;;;;;;22.77;10.25;;;;;;;4.53;73.66;99082.88;4260787;33;34424;-82
2023/01/20 10:22:40;;;;;;;22.33;10.55;;;;;;;6.31;68.61;99065.81;4245511;33;33486;-82
2023/01/20 10:25:12;;;;;;;19.02;10.25;;;;;;;4.25;75.98;99081.28;4257623;33;33914;-80
2023/01/20 10:27:49;;;;;;;17.75;9.70;;;;;;;4.72;74.01;99069.41;4247532;33;34161;-82
2023/01/20 10:30:18;;;;;;;18.77;9.70;;;;;;;4.55;75.65;99075.28;4246279;33;33734;-79
2023/01/20 10:32:57;;;;;;;19.27;9.95;;;;;;;4.00;78.18;99078.97;4258227;33;33034;-80
2023/01/20 10:35:27;;;;;;;19.77;11.20;;;;;;;3.78;78.54;99079.37;4246439;33;34354;-81
2023/01/20 10:37:57;;;;;;;18.55;10.20;;;;;;;3.47;79.52;99079.19;4260181;33;33874;-78
2023/01/20 10:40:43;;;;;;;22.10;10.93;;;;;;;3.88;78.58;99078.22;4258974;33;34027;-82
2023/01/20 10:43:13;;;;;;;25.95;10.20;;;;;;;4.09;76.54;99074.38;4258888;33;33652;-78
2023/01/20 10:45:50;;;;;;;20.88;10.30;;;;;;;3.84;79.34;99071.16;4241131;33;33255;-79
2023/01/20 10:48:26;;;;;;;22.52;11.80;;;;;;;5.75;72.11;99079.22;4260008;33;33929;-80
2023/01/20 10:51:31;;;;;;;23.48;11.07;;;;;;;4.22;76.93;99085.34;4257479;33;33851;-79
2023/01/20 10:54:12;;;;;;;24.25;12.25;;;;;;;4.14;78.25;99088.34;4258405;33;34312;-80
2023/01/20 10:56:52;;;;;;;19.73;10.13;;;;;;;5.53;73.50;99093.50;4244911;33;34134;-80
2023/01/20 10:59:49;;;;;;;20.55;10.45;;;;;;;4.90;73.23;99093.50;4246376;33;33897;-81
2023/01/20 11:02:21;;;;;;;30.75;15.95;;;;;;;6.21;70.01;99089.31;4258889;33;33626;-80
2023/01/20 11:05:13;;;;;;;18.12;8.68;;;;;;;8.40;61.14;99084.75;4245556;33;33886;-82
2023/01/20 11:07:41;;;;;;;18.48;9.23;;;;;;;7.70;61.80;99082.62;4245542;33;34211;-83
2023/01/20 11:10:14;;;;;;;20.77;10.05;;;;;;;7.45;63.15;99076.34;4247379;33;34665;-82
2023/01/20 11:12:46;;;;;;;16.37;8.52;;;;;;;7.07;64.07;99083.22;4259638;33;33655;-81
2023/01/20 11:15:21;;;;;;;20.90;8.77;;;;;;;6.91;63.95;99075.56;4245616;33;34299;-83
2023/01/20 11:18:15;;;;;;;19.15;8.57;;;;;;;6.93;64.15;99081.66;4259904;33;33699;-81
2023/01/20 11:20:51;;;;;;;19.70;9.40;;;;;;;6.74;64.74;99072.16;4253150;33;34613;-83
2023/01/20 11:23:33;;;;;;;20.88;10.40;;;;;;;6.69;65.81;99074.53;4259415;33;34150;-86
2023/01/20 11:26:10;;;;;;;18.75;9.35;;;;;;;6.49;66.19;99060.72;4258513;33;33275;-84
2023/01/20 11:28:53;;;;;;;19.62;10.07;;;;;;;6.80;64.69;99055.34;4246835;33;34067;-86
2023/01/20 11:31:41;;;;;;;16.83;8.85;;;;;;;7.08;64.28;99048.91;4259121;33;33579;-80
2023/01/20 11:34:22;;;;;;;19.15;9.57;;;;;;;7.27;63.41;99051.50;4235133;33;32996;-84
2023/01/20 11:37:18;;;;;;;17.40;9.15;;;;;;;7.26;63.72;99049.75;4259687;33;34602;-82
2023/01/20 11:39:48;;;;;;;19.87;9.50;;;;;;;7.25;63.39;99032.53;4259675;33;33515;-84
2023/01/20 11:42:19;;;;;;;20.52;8.68;;;;;;;6.93;64.26;99025.87;4259334;33;34568;-83
2023/01/20 11:44:51;;;;;;;12.73;6.90;;;;;;;7.06;63.28;99019.63;4258026;33;33113;-82
2023/01/20 11:47:26;;;;;;;16.15;8.40;;;;;;;6.79;64.07;99025.25;4258982;33;33432;-84
2023/01/20 11:50:02;;;;;;;14.18;7.87;;;;;;;6.98;64.05;99020.97;4257501;33;33348;-79
2023/01/20 11:52:31;;;;;;;17.17;8.93;;;;;;;7.53;62.57;99022.56;4259824;33;33772;-84
2023/01/20 11:55:11;;;;;;;19.80;9.93;;;;;;;7.39;63.08;99020.28;4263756;33;32906;-81
2023/01/20 11:57:52;;;;;;;14.50;8.52;;;;;;;6.81;64.74;99015.03;4257054;33;33477;-82
2023/01/20 12:00:30;;;;;;;18.58;9.57;;;;;;;7.39;62.51;99017.69;4267475;33;34117;-78
2023/01/20 12:03:02;;;;;;;16.45;8.52;;;;;;;6.84;64.84;99022.91;4257562;33;34623;-83